Time;durP1;ratioP1;P1;durP2;ratioP2;P2;SDS_P1;SDS_P2;PMS_P1;PMS_P2;Temp;Humidity;BMP_temperature;BMP_pressure;BME280_temperature;BME280_humidity;BME280_pressure;Samples;Min_cycle;Max_cycle;Signal;HPM_P1;HPM_P2
2021/12/14 00:02:16;;;;;;;11.48;7.30;;;9.70;92.90;;;;;;4905363;29;20040;-76
2021/12/14 00:04:43;;;;;;;10.90;7.97;;;9.70;92.90;;;;;;4904931;29;20050;-77
2021/12/14 00:07:11;;;;;;;12.40;8.30;;;9.70;92.80;;;;;;4905243;29;20031;-76
2021/12/14 00:09:40;;;;;;;12.45;8.15;;;9.70;92.90;;;;;;4904584;29;20035;-77
2021/12/14 00:12:29;;;;;;;11.88;8.18;;;9.70;92.90;;;;;;4904571;29;20027;-78
2021/12/14 00:15:06;;;;;;;12.63;7.95;;;9.70;92.90;;;;;;4904945;29;20035;-77
2021/12/14 00:17:37;;;;;;;12.32;8.13;;;9.80;92.90;;;;;;4905505;29;20111;-76
2021/12/14 00:20:16;;;;;;;12.50;7.75;;;9.70;92.80;;;;;;4921872;29;20024;-76
2021/12/14 00:25:39;;;;;;;12.43;8.35;;;9.70;92.80;;;;;;4925599;29;20024;-76
2021/12/14 00:28:10;;;;;;;14.38;7.70;;;9.70;92.80;;;;;;4904773;29;20024;-76
2021/12/14 00:30:37;;;;;;;14.27;7.82;;;9.70;92.80;;;;;;4904842;29;20091;-78
2021/12/14 00:33:11;;;;;;;11.52;7.72;;;9.70;92.80;;;;;;4921870;29;20032;-76
2021/12/14 00:35:37;;;;;;;12.13;7.95;;;9.70;92.80;;;;;;4905151;29;20032;-77
2021/12/14 00:38:03;;;;;;;11.77;8.15;;;9.70;92.80;;;;;;4904756;29;20539;-76
2021/12/14 00:40:37;;;;;;;13.10;7.88;;;9.70;92.90;;;;;;4921276;29;20043;-78
2021/12/14 00:43:04;;;;;;;11.35;7.88;;;9.70;92.80;;;;;;4904722;29;20031;-78
2021/12/14 00:45:32;;;;;;;11.73;8.15;;;9.70;92.80;;;;;;4904876;29;20024;-79
2021/12/14 00:47:58;;;;;;;13.07;8.10;;;9.70;92.80;;;;;;4905085;29;20024;-76
2021/12/14 00:50:27;;;;;;;15.77;8.50;;;9.70;92.80;;;;;;4926488;29;20028;-78
2021/12/14 00:52:52;;;;;;;17.33;8.82;;;9.70;92.90;;;;;;4926395;29;20043;-76
2021/12/14 00:55:41;;;;;;;17.98;8.55;;;9.70;92.90;;;;;;4925507;29;20031;-78
2021/12/14 00:58:08;;;;;;;15.25;8.18;;;9.70;92.80;;;;;;4925660;29;20028;-76
2021/12/14 01:00:38;;;;;;;17.35;8.80;;;9.70;92.80;;;;;;4908182;29;20056;-77
2021/12/14 01:03:04;;;;;;;29.42;8.95;;;9.80;92.80;;;;;;4927899;23;20508;-78
2021/12/14 01:05:34;;;;;;;16.48;8.52;;;9.70;92.80;;;;;;4899488;29;20029;-78
2021/12/14 01:08:02;;;;;;;23.33;8.95;;;9.70;92.80;;;;;;4899716;29;20035;-78
2021/12/14 01:10:47;;;;;;;22.13;8.45;;;9.70;92.80;;;;;;4900635;29;20124;-77
2021/12/14 01:13:14;;;;;;;24.52;8.73;;;9.80;92.80;;;;;;4899578;29;20024;-77
2021/12/14 01:15:52;;;;;;;24.17;9.80;;;9.70;92.70;;;;;;4899481;29;20059;-78
2021/12/14 01:21:00;;;;;;;23.75;9.27;;;9.80;92.90;;;;;;4900723;29;20119;-77
2021/12/14 01:23:31;;;;;;;26.48;9.52;;;9.70;92.90;;;;;;4900531;29;20061;-78
2021/12/14 01:26:06;;;;;;;30.73;9.75;;;9.70;93.10;;;;;;4899244;29;20029;-78
2021/12/14 01:28:33;;;;;;;25.38;9.68;;;9.70;93.20;;;;;;4900373;29;20036;-78
2021/12/14 01:31:19;;;;;;;27.05;9.77;;;9.80;93.10;;;;;;4900117;29;20024;-77
2021/12/14 01:33:50;;;;;;;27.40;9.75;;;9.80;93.10;;;;;;4899109;29;20033;-77
2021/12/14 01:36:27;;;;;;;27.83;9.43;;;9.80;93.10;;;;;;4900407;29;20033;-77
2021/12/14 01:39:11;;;;;;;19.65;8.63;;;9.90;93.30;;;;;;4900300;29;20028;-78
2021/12/14 01:41:39;;;;;;;21.00;8.55;;;9.90;93.10;;;;;;4900295;29;20567;-77
2021/12/14 01:44:05;;;;;;;18.40;8.68;;;9.80;93.00;;;;;;4900076;29;20445;-78
2021/12/14 01:46:41;;;;;;;19.33;8.70;;;9.90;93.00;;;;;;4899083;29;20024;-78
2021/12/14 01:49:10;;;;;;;16.95;8.45;;;9.90;93.00;;;;;;4899983;29;20021;-77
2021/12/14 01:51:38;;;;;;;15.30;8.18;;;9.90;93.00;;;;;;4898998;29;20472;-77
2021/12/14 01:54:06;;;;;;;18.38;8.80;;;9.90;93.00;;;;;;4898698;29;20405;-77
2021/12/14 01:56:33;;;;;;;13.77;7.53;;;9.90;92.90;;;;;;4898779;29;20039;-77
2021/12/14 01:59:09;;;;;;;15.23;8.75;;;9.90;92.90;;;;;;4898097;29;20025;-77
2021/12/14 02:01:42;;;;;;;13.82;9.15;;;9.90;92.90;;;;;;4898751;29;20024;-78
2021/12/14 02:04:16;;;;;;;18.17;8.60;;;9.90;92.90;;;;;;4912965;29;20433;-78
2021/12/14 02:06:43;;;;;;;14.95;9.07;;;9.90;92.80;;;;;;4901853;29;20452;-77
2021/12/14 02:09:17;;;;;;;15.43;9.23;;;9.90;92.90;;;;;;4918384;29;20025;-77
2021/12/14 02:11:48;;;;;;;18.15;8.95;;;9.90;92.90;;;;;;4918676;29;20024;-77
2021/12/14 02:14:13;;;;;;;16.67;8.52;;;9.90;92.80;;;;;;4901548;29;20511;-77
2021/12/14 02:16:40;;;;;;;14.07;8.90;;;9.90;92.80;;;;;;4901548;29;20086;-77
2021/12/14 02:19:13;;;;;;;15.15;8.88;;;9.90;92.80;;;;;;4918142;29;20036;-78
2021/12/14 02:21:41;;;;;;;17.55;9.30;;;9.90;92.80;;;;;;4901530;29;20035;-78
2021/12/14 02:24:09;;;;;;;14.00;8.98;;;9.90;92.90;;;;;;4918242;29;20024;-77
2021/12/14 02:26:37;;;;;;;13.90;9.18;;;9.90;92.90;;;;;;4901345;29;20146;-77
2021/12/14 02:29:06;;;;;;;12.88;8.77;;;9.80;92.90;;;;;;4917874;29;20388;-77
2021/12/14 02:31:35;;;;;;;13.73;9.10;;;9.80;93.10;;;;;;4901288;29;20511;-77
2021/12/14 02:34:02;;;;;;;13.93;8.80;;;9.80;93.10;;;;;;4917995;29;20032;-77
2021/12/14 02:36:34;;;;;;;15.32;9.13;;;9.80;93.10;;;;;;4901210;29;20028;-77
2021/12/14 02:39:07;;;;;;;;;;;9.80;93.10;;;;;;4901527;29;20052;-77
2021/12/14 02:41:45;;;;;;;15.98;8.30;;;9.80;93.10;;;;;;4918137;29;19918;-77
2021/12/14 02:44:12;;;;;;;14.32;8.88;;;9.70;93.20;;;;;;4901096;29;20456;-77
2021/12/14 02:46:42;;;;;;;14.15;9.27;;;9.80;93.20;;;;;;4901070;29;20024;-76
2021/12/14 02:49:11;;;;;;;13.60;8.80;;;9.70;93.20;;;;;;4917689;29;20481;-77
2021/12/14 02:51:53;;;;;;;13.60;8.68;;;9.70;93.20;;;;;;4917871;29;20040;-77
2021/12/14 02:54:24;;;;;;;14.60;9.43;;;9.70;93.20;;;;;;4917836;29;20028;-76
2021/12/14 02:57:05;;;;;;;14.50;9.63;;;9.70;93.30;;;;;;4900920;29;20523;-77
2021/12/14 02:59:34;;;;;;;13.57;8.93;;;9.70;93.30;;;;;;4900237;29;20131;-77
2021/12/14 03:02:04;;;;;;;12.55;8.73;;;9.70;93.30;;;;;;4900811;29;20031;-78
2021/12/14 03:04:31;;;;;;;13.95;8.95;;;9.70;93.30;;;;;;4917486;29;20031;-78
2021/12/14 03:06:59;;;;;;;15.02;10.00;;;9.70;93.20;;;;;;4917646;29;20031;-78
2021/12/14 03:12:19;;;;;;;17.17;8.93;;;9.70;93.10;;;;;;4917429;29;20032;-78
2021/12/14 03:14:59;;;;;;;15.00;8.52;;;9.70;93.10;;;;;;4900448;29;20123;-77
2021/12/14 03:17:25;;;;;;;17.13;8.75;;;9.70;93.20;;;;;;4917484;29;20555;-78
2021/12/14 03:20:06;;;;;;;13.93;9.10;;;9.70;93.20;;;;;;4892942;29;20041;-77
2021/12/14 03:22:41;;;;;;;15.25;9.07;;;9.70;93.20;;;;;;4895107;29;20035;-78
2021/12/14 03:25:08;;;;;;;13.38;9.00;;;9.70;93.20;;;;;;4917204;29;20096;-79
2021/12/14 03:27:37;;;;;;;15.73;9.25;;;9.70;93.20;;;;;;4917148;29;20028;-78
2021/12/14 03:30:12;;;;;;;15.05;8.98;;;9.70;93.20;;;;;;4900004;29;20399;-76
2021/12/14 03:32:37;;;;;;;13.48;8.68;;;9.70;93.20;;;;;;4916985;29;20541;-77
2021/12/14 03:35:04;;;;;;;15.25;8.98;;;9.70;93.20;;;;;;4900271;29;20138;-78
2021/12/14 03:37:29;;;;;;;14.15;8.88;;;9.80;93.20;;;;;;4900057;29;20035;-78
2021/12/14 03:40:01;;;;;;;13.88;9.10;;;9.70;93.20;;;;;;4900083;29;20114;-77
2021/12/14 03:42:37;;;;;;;15.75;8.80;;;9.70;93.20;;;;;;4900120;29;20024;-78
2021/12/14 03:45:07;;;;;;;14.57;8.30;;;9.70;93.20;;;;;;4900104;29;20427;-75
2021/12/14 03:47:39;;;;;;;14.00;8.27;;;9.80;93.20;;;;;;4899935;29;20024;-78
2021/12/14 03:50:26;;;;;;;14.57;8.55;;;9.70;93.20;;;;;;4899678;29;20028;-77
2021/12/14 03:52:51;;;;;;;13.07;8.30;;;9.70;93.20;;;;;;4899925;29;20040;-76
2021/12/14 03:55:29;;;;;;;15.75;8.88;;;9.70;93.20;;;;;;4899755;29;20103;-77
2021/12/14 03:57:54;;;;;;;16.65;9.40;;;9.70;93.20;;;;;;4916722;29;20024;-77
2021/12/14 04:00:25;;;;;;;15.65;8.63;;;9.70;93.20;;;;;;4899460;29;20043;-77
2021/12/14 04:02:54;;;;;;;19.90;9.40;;;9.70;93.20;;;;;;4899538;29;20024;-77
2021/12/14 04:05:21;;;;;;;18.25;9.15;;;9.70;93.10;;;;;;4899482;29;20024;-78
2021/12/14 04:07:47;;;;;;;15.48;8.57;;;9.70;93.10;;;;;;4899860;29;20463;-77
2021/12/14 04:10:26;;;;;;;23.40;9.38;;;9.70;93.10;;;;;;4916262;29;20087;-77
2021/12/14 04:12:53;;;;;;;18.70;8.35;;;9.70;93.30;;;;;;4899496;29;20035;-76
2021/12/14 04:15:19;;;;;;;15.40;9.00;;;9.80;93.10;;;;;;4899460;29;20038;-77
2021/12/14 04:17:45;;;;;;;16.42;8.73;;;9.70;93.10;;;;;;4899561;29;20028;-78
2021/12/14 04:20:20;;;;;;;15.43;8.82;;;9.70;93.10;;;;;;4899177;29;20467;-78
2021/12/14 04:22:48;;;;;;;17.73;8.98;;;9.70;93.10;;;;;;4899169;29;20080;-77
2021/12/14 04:25:17;;;;;;;16.77;8.90;;;9.70;93.10;;;;;;4899358;29;20028;-77
2021/12/14 04:27:43;;;;;;;16.52;8.30;;;9.80;93.10;;;;;;4899408;29;20020;-77
2021/12/14 04:30:13;;;;;;;14.98;8.02;;;9.70;93.10;;;;;;4898896;29;20032;-78
2021/12/14 04:32:40;;;;;;;15.02;8.13;;;9.80;93.10;;;;;;4899103;29;20034;-77
2021/12/14 04:35:08;;;;;;;14.63;8.55;;;9.80;93.10;;;;;;4899321;29;20028;-78
2021/12/14 04:37:39;;;;;;;11.95;7.75;;;9.70;93.00;;;;;;4899305;29;20175;-77
2021/12/14 04:40:24;;;;;;;15.13;7.95;;;9.80;93.00;;;;;;4915993;29;20487;-76
2021/12/14 04:51:58;;;;;;;12.75;7.43;;;9.70;93.00;;;;;;4916433;29;20036;-79
2021/12/14 04:54:02;;;;;;;13.90;7.55;;;9.80;93.00;;;;;;4915913;29;20097;-76
2021/12/14 04:56:33;;;;;;;10.98;7.50;;;9.70;93.00;;;;;;4916080;29;20024;-77
2021/12/14 04:59:04;;;;;;;14.07;8.27;;;9.80;93.00;;;;;;4899018;29;20373;-77
2021/12/14 05:01:34;;;;;;;12.93;8.20;;;9.80;93.00;;;;;;4898935;29;20033;-77
2021/12/14 05:04:03;;;;;;;13.35;7.72;;;9.80;93.00;;;;;;4915818;29;20032;-78
2021/12/14 05:06:45;;;;;;;11.20;7.72;;;9.80;93.00;;;;;;4899094;29;20021;-77
2021/12/14 05:09:20;;;;;;;11.65;7.88;;;9.80;93.00;;;;;;4898878;29;20021;-77
2021/12/14 05:11:48;;;;;;;11.38;7.13;;;9.80;92.90;;;;;;4915884;29;20419;-77
2021/12/14 05:14:13;;;;;;;10.80;7.30;;;9.80;92.90;;;;;;4915915;29;20036;-78
2021/12/14 05:16:40;;;;;;;14.60;8.00;;;9.80;93.00;;;;;;4899200;29;20115;-77
2021/12/14 05:19:08;;;;;;;12.77;7.75;;;9.80;92.90;;;;;;4915673;29;20024;-77
2021/12/14 05:21:44;;;;;;;11.30;7.22;;;9.80;92.90;;;;;;4909838;29;20157;-77
2021/12/14 05:24:13;;;;;;;12.10;7.22;;;9.80;92.90;;;;;;4914637;29;20035;-77
2021/12/14 05:26:39;;;;;;;11.30;7.35;;;9.80;92.90;;;;;;4915734;29;20047;-77
2021/12/14 05:29:05;;;;;;;11.30;7.57;;;9.80;92.90;;;;;;4913651;29;20495;-77
2021/12/14 05:31:31;;;;;;;10.70;7.10;;;9.80;92.90;;;;;;4911501;29;20399;-76
2021/12/14 05:33:57;;;;;;;10.82;7.28;;;9.80;92.90;;;;;;4906281;29;20416;-77
2021/12/14 05:36:23;;;;;;;10.73;7.53;;;9.80;92.90;;;;;;4915206;29;20064;-78
2021/12/14 05:39:04;;;;;;;11.48;7.57;;;9.80;92.90;;;;;;4915231;29;20402;-77
2021/12/14 05:44:23;;;;;;;11.40;7.05;;;9.80;92.90;;;;;;4914711;29;20147;-77
2021/12/14 05:46:59;;;;;;;10.38;7.03;;;9.80;92.90;;;;;;4914699;29;20181;-77
2021/12/14 05:49:28;;;;;;;11.07;7.40;;;9.80;92.90;;;;;;4897769;29;20079;-76
2021/12/14 05:51:57;;;;;;;10.38;7.07;;;9.80;92.90;;;;;;4890850;29;20040;-79
2021/12/14 05:54:29;;;;;;;10.63;7.75;;;9.80;92.90;;;;;;4913872;29;20555;-77
2021/12/14 05:56:56;;;;;;;10.35;7.13;;;9.80;92.90;;;;;;4897165;29;20036;-77
2021/12/14 05:59:25;;;;;;;10.15;7.50;;;9.80;92.90;;;;;;4897627;29;20032;-77
2021/12/14 06:01:52;;;;;;;10.15;6.72;;;9.80;92.90;;;;;;4914687;29;20032;-77
2021/12/14 06:04:18;;;;;;;10.77;7.68;;;9.80;92.90;;;;;;4897982;29;20047;-78
2021/12/14 06:06:55;;;;;;;10.63;7.10;;;9.70;92.90;;;;;;4898286;29;20028;-78
2021/12/14 06:09:28;;;;;;;10.00;6.82;;;9.80;92.90;;;;;;4914923;29;20064;-80
2021/12/14 06:12:08;;;;;;;9.80;7.18;;;9.80;92.90;;;;;;4915274;29;20111;-78
2021/12/14 06:14:41;;;;;;;11.18;7.30;;;9.80;92.80;;;;;;4897893;29;20024;-78
2021/12/14 06:17:07;;;;;;;11.38;7.70;;;9.80;92.80;;;;;;4915340;29;20043;-78
2021/12/14 06:19:40;;;;;;;12.00;7.47;;;9.80;92.80;;;;;;4897668;29;20091;-74
2021/12/14 06:22:07;;;;;;;10.80;7.50;;;9.80;92.80;;;;;;4896947;29;20036;-78
2021/12/14 06:24:36;;;;;;;11.07;7.30;;;9.80;92.80;;;;;;4898217;29;20119;-80
2021/12/14 06:27:06;;;;;;;11.63;7.38;;;9.80;92.80;;;;;;4897918;29;20828;-77
2021/12/14 06:29:38;;;;;;;11.10;7.10;;;9.80;92.90;;;;;;4894908;29;20059;-77
2021/12/14 06:32:10;;;;;;;11.05;7.30;;;9.80;92.90;;;;;;4914035;29;20031;-76
2021/12/14 06:34:42;;;;;;;15.88;8.15;;;9.80;92.90;;;;;;4896864;29;20032;-79
2021/12/14 06:40:16;;;;;;;10.98;7.60;;;9.80;92.90;;;;;;4918340;29;20024;-77
2021/12/14 06:42:54;;;;;;;10.98;7.38;;;9.80;92.90;;;;;;4901519;29;20481;-79
2021/12/14 06:45:37;;;;;;;11.95;7.88;;;9.80;92.90;;;;;;4899689;29;20033;-78
2021/12/14 06:48:08;;;;;;;11.73;8.23;;;9.80;92.90;;;;;;4901276;29;20024;-79
2021/12/14 06:50:39;;;;;;;10.77;8.02;;;9.80;92.90;;;;;;4900693;29;20032;-78
2021/12/14 06:53:08;;;;;;;12.00;8.50;;;9.80;92.90;;;;;;4917749;29;20078;-79
2021/12/14 06:55:35;;;;;;;13.68;8.95;;;9.80;92.90;;;;;;4900930;29;20583;-79
2021/12/14 06:58:27;;;;;;;11.70;8.40;;;9.80;92.90;;;;;;4900863;29;20083;-78
2021/12/14 07:01:04;;;;;;;12.35;8.50;;;9.80;92.90;;;;;;4908517;29;20048;-80
2021/12/14 07:03:47;;;;;;;11.73;8.27;;;9.80;93.00;;;;;;4921362;23;20048;-85
2021/12/14 07:06:27;;;;;;;12.90;8.70;;;9.80;93.00;;;;;;4883765;29;20037;-84
2021/12/14 07:08:56;;;;;;;12.68;8.93;;;9.80;93.00;;;;;;4883491;29;20241;-85
2021/12/14 07:11:23;;;;;;;12.27;8.65;;;9.80;93.00;;;;;;4883792;29;20127;-86
2021/12/14 07:13:51;;;;;;;11.77;8.80;;;9.80;93.10;;;;;;4907521;29;20032;-85
2021/12/14 07:16:32;;;;;;;12.68;8.70;;;9.80;93.10;;;;;;4919408;29;20453;-85
2021/12/14 07:19:01;;;;;;;10.30;7.82;;;9.80;93.10;;;;;;4902180;29;20087;-84
2021/12/14 07:21:48;;;;;;;11.60;8.90;;;9.80;93.10;;;;;;4902619;29;20500;-84
2021/12/14 07:24:23;;;;;;;13.30;9.25;;;9.80;93.10;;;;;;4902300;29;20060;-85
2021/12/14 07:26:50;;;;;;;12.45;9.13;;;9.80;93.10;;;;;;4902054;29;20037;-85
2021/12/14 07:29:24;;;;;;;11.43;8.40;;;9.70;93.10;;;;;;4902307;29;20395;-86
2021/12/14 07:31:50;;;;;;;13.05;9.02;;;9.80;93.20;;;;;;4919532;29;20443;-85
2021/12/14 07:34:15;;;;;;;13.48;9.27;;;9.80;93.20;;;;;;4902251;29;20028;-86
2021/12/14 07:36:41;;;;;;;13.07;9.38;;;9.80;93.20;;;;;;4919165;29;20036;-85
2021/12/14 07:39:11;;;;;;;12.77;9.38;;;9.70;93.20;;;;;;4918644;29;20095;-87
2021/12/14 07:41:42;;;;;;;11.02;8.68;;;9.80;93.20;;;;;;4901531;29;20031;-84
2021/12/14 07:44:15;;;;;;;12.45;9.48;;;9.80;93.20;;;;;;4901490;29;20032;-84
2021/12/14 07:46:46;;;;;;;13.13;10.18;;;9.80;93.20;;;;;;4901863;29;20047;-86
2021/12/14 07:49:30;;;;;;;12.18;9.45;;;9.80;93.20;;;;;;4901568;29;20028;-85
2021/12/14 07:52:02;;;;;;;11.98;9.85;;;9.80;93.20;;;;;;4901919;29;20032;-85
2021/12/14 07:54:32;;;;;;;14.10;10.68;;;9.80;93.20;;;;;;4901299;29;20028;-84
2021/12/14 07:57:06;;;;;;;12.60;9.50;;;9.80;93.30;;;;;;4901398;29;20032;-86
2021/12/14 07:59:40;;;;;;;12.85;10.00;;;9.80;93.30;;;;;;4886326;29;20150;-87
2021/12/14 08:02:45;;;;;;;12.95;9.98;;;9.80;93.30;;;;;;4901796;29;20024;-85
2021/12/14 08:05:27;;;;;;;12.60;10.18;;;9.80;93.30;;;;;;4901407;29;20040;-86
2021/12/14 08:08:03;;;;;;;13.00;10.10;;;9.80;93.30;;;;;;4901907;29;20076;-84
2021/12/14 08:10:38;;;;;;;13.88;10.18;;;9.80;93.30;;;;;;4918329;29;20028;-86
2021/12/14 08:13:13;;;;;;;14.20;10.60;;;9.80;93.30;;;;;;4901950;29;20035;-85
2021/12/14 08:15:41;;;;;;;13.88;11.00;;;9.80;93.30;;;;;;4901374;29;20036;-86
2021/12/14 08:18:27;;;;;;;13.43;10.55;;;9.80;93.30;;;;;;4901480;29;20032;-86
2021/12/14 08:20:53;;;;;;;14.00;11.20;;;9.80;93.30;;;;;;4901312;29;20036;-85
2021/12/14 08:23:29;;;;;;;14.13;11.05;;;9.80;93.30;;;;;;4901084;29;20028;-86
2021/12/14 08:26:11;;;;;;;15.20;11.50;;;9.80;93.30;;;;;;4901394;29;20111;-85
2021/12/14 08:28:59;;;;;;;14.00;11.27;;;9.80;93.30;;;;;;4901265;29;20035;-87
2021/12/14 08:31:32;;;;;;;15.15;12.02;;;9.80;93.30;;;;;;4901106;29;20508;-85
2021/12/14 08:34:00;;;;;;;13.77;11.02;;;9.80;93.30;;;;;;4918459;29;20076;-88
2021/12/14 08:36:44;;;;;;;14.32;11.15;;;9.80;93.30;;;;;;4901017;29;20031;-85
2021/12/14 08:39:15;;;;;;;16.13;12.13;;;9.80;93.30;;;;;;4901197;29;20028;-86
2021/12/14 08:41:55;;;;;;;15.23;11.90;;;9.80;93.30;;;;;;4901066;29;20043;-85
2021/12/14 08:44:36;;;;;;;15.77;12.48;;;9.80;93.20;;;;;;4900355;29;20028;-85
2021/12/14 08:47:10;;;;;;;14.63;11.80;;;9.80;93.20;;;;;;4901178;29;20107;-86
2021/12/14 08:49:37;;;;;;;15.23;12.18;;;9.80;93.20;;;;;;4900674;29;20024;-85
2021/12/14 08:52:04;;;;;;;15.73;11.50;;;9.80;93.20;;;;;;4901185;29;20107;-86
2021/12/14 08:54:32;;;;;;;16.23;12.52;;;9.80;93.20;;;;;;4900809;29;20028;-85
2021/12/14 08:57:04;;;;;;;14.93;12.40;;;9.80;93.20;;;;;;4917960;29;20034;-85
2021/12/14 08:59:31;;;;;;;15.82;12.40;;;9.80;93.20;;;;;;4900417;29;20076;-84
2021/12/14 09:01:58;;;;;;;16.05;12.65;;;9.80;93.20;;;;;;4900762;29;20034;-85
2021/12/14 09:04:31;;;;;;;16.75;13.07;;;9.80;93.20;;;;;;4917705;29;20031;-86
2021/12/14 09:07:00;;;;;;;16.27;13.13;;;9.80;93.20;;;;;;4900891;29;20024;-85
2021/12/14 09:09:26;;;;;;;18.63;13.25;;;9.80;93.20;;;;;;4919654;29;20024;-85
2021/12/14 09:12:07;;;;;;;16.83;12.90;;;9.80;93.20;;;;;;4904490;29;20039;-86
2021/12/14 09:14:32;;;;;;;17.33;13.40;;;9.80;93.20;;;;;;4904519;29;20039;-84
2021/12/14 09:17:00;;;;;;;16.65;13.75;;;9.80;93.20;;;;;;4904827;29;20036;-86
2021/12/14 09:19:32;;;;;;;15.52;12.98;;;9.80;93.20;;;;;;4903979;29;20035;-85
2021/12/14 09:22:02;;;;;;;15.45;12.68;;;9.80;93.10;;;;;;4904116;29;20043;-85
2021/12/14 09:24:30;;;;;;;18.17;13.85;;;9.90;93.20;;;;;;4914544;29;20123;-84
2021/12/14 09:27:00;;;;;;;17.92;14.38;;;9.80;93.10;;;;;;4897653;29;20119;-85
2021/12/14 09:29:28;;;;;;;18.48;14.00;;;9.80;93.10;;;;;;4899044;29;20167;-85
2021/12/14 09:31:57;;;;;;;17.63;13.45;;;9.80;93.10;;;;;;4900092;29;20127;-85
2021/12/14 09:34:25;;;;;;;16.90;13.95;;;9.80;93.10;;;;;;4901311;29;20123;-84
2021/12/14 09:36:53;;;;;;;19.20;14.98;;;9.90;93.20;;;;;;4901197;29;20042;-84
2021/12/14 09:39:29;;;;;;;17.08;14.30;;;9.80;93.20;;;;;;4901310;29;20036;-83
2021/12/14 09:41:58;;;;;;;17.33;14.68;;;9.80;93.20;;;;;;4901225;29;20047;-85
2021/12/14 09:45:21;;;;;;;17.83;15.13;;;9.90;93.10;;;;;;4899893;29;20396;-84
2021/12/14 09:48:22;;;;;;;17.90;14.25;;;10.00;93.10;;;;;;4889426;29;20028;-88
2021/12/14 10:11:35;;;;;;;19.40;15.68;;;10.00;92.80;;;;;;4943052;29;20108;-83
2021/12/14 10:52:25;;;;;;;20.63;16.80;;;9.90;93.10;;;;;;5359444;23;20524;-82
2021/12/14 12:11:23;;;;;;;21.85;16.17;;;9.80;93.40;;;;;;5985224;23;20019;-81
2021/12/14 12:18:01;;;;;;;21.48;15.60;;;9.90;93.40;;;;;;4893848;29;20039;-83
2021/12/14 12:21:08;;;;;;;20.63;15.85;;;9.90;93.40;;;;;;4893115;29;20041;-82
2021/12/14 13:03:35;;;;;;;21.45;16.10;;;9.90;93.40;;;;;;4913667;23;20040;31
2021/12/14 13:06:08;;;;;;;20.83;15.57;;;11.50;93.80;;;;;;4920169;29;20714;-78
2021/12/14 13:08:36;;;;;;;20.75;15.07;;;9.90;93.40;;;;;;4905130;29;20526;-78
2021/12/14 13:11:10;;;;;;;22.40;16.13;;;9.90;93.40;;;;;;4904764;29;20039;-77
2021/12/14 13:13:47;;;;;;;20.75;14.80;;;9.90;93.40;;;;;;4921027;29;20024;-78
2021/12/14 13:16:26;;;;;;;21.60;15.77;;;9.90;93.40;;;;;;4903958;29;20123;-77
2021/12/14 13:19:14;;;;;;;22.40;15.90;;;9.90;93.40;;;;;;4904180;29;20024;-78
2021/12/14 13:21:46;;;;;;;21.08;15.68;;;9.90;93.40;;;;;;4904205;29;20526;-76
2021/12/14 13:24:20;;;;;;;20.33;15.32;;;9.90;93.40;;;;;;4903769;29;20024;-78
2021/12/14 13:26:47;;;;;;;20.73;14.95;;;9.90;93.40;;;;;;4904141;29;20032;-76
2021/12/14 13:29:12;;;;;;;20.35;14.77;;;9.90;93.40;;;;;;4920702;29;20035;-78
2021/12/14 13:31:48;;;;;;;20.50;15.52;;;9.90;93.40;;;;;;4903972;29;20028;-77
2021/12/14 13:34:31;;;;;;;19.90;14.65;;;9.90;93.40;;;;;;4920750;29;20039;-76
2021/12/14 13:36:59;;;;;;;20.77;15.35;;;9.90;93.40;;;;;;4903845;29;20119;-78
2021/12/14 13:39:26;;;;;;;21.60;14.82;;;9.90;93.40;;;;;;4920656;29;20502;-76
2021/12/14 13:42:07;;;;;;;20.15;14.68;;;9.90;93.40;;;;;;4904029;29;20123;-79
2021/12/14 13:44:39;;;;;;;21.88;16.33;;;9.90;93.40;;;;;;4920777;29;20026;-77
2021/12/14 13:47:06;;;;;;;;;;;9.90;93.40;;;;;;4904218;29;20040;-77
2021/12/14 13:49:32;;;;;;;21.35;14.85;;;9.90;93.40;;;;;;4903524;29;19914;-77
2021/12/14 13:51:58;;;;;;;20.42;15.02;;;9.90;93.40;;;;;;4920751;29;20028;-79
2021/12/14 13:54:24;;;;;;;21.05;15.40;;;9.90;93.40;;;;;;4918932;29;20025;-77
2021/12/14 13:56:52;;;;;;;21.17;15.23;;;9.90;93.40;;;;;;4900866;29;20503;-79
2021/12/14 13:59:18;;;;;;;20.45;15.20;;;9.90;93.40;;;;;;4916676;29;20024;-77
2021/12/14 14:01:50;;;;;;;21.17;15.30;;;9.90;93.40;;;;;;4917937;29;20296;-76
2021/12/14 14:04:25;;;;;;;22.00;15.82;;;9.90;93.40;;;;;;4900380;29;20102;-76
2021/12/14 14:06:52;;;;;;;22.58;16.00;;;9.90;93.40;;;;;;4901014;29;20089;-78
2021/12/14 14:09:25;;;;;;;22.15;16.27;;;9.90;93.40;;;;;;4917206;29;20020;-77
2021/12/14 14:12:09;;;;;;;21.42;15.45;;;9.90;93.40;;;;;;4917559;29;20028;-77
2021/12/14 14:14:38;;;;;;;21.40;15.70;;;9.90;93.40;;;;;;4900459;29;20032;-76
2021/12/14 14:17:05;;;;;;;21.63;16.00;;;9.90;93.50;;;;;;4917609;29;20028;-75
2021/12/14 14:19:37;;;;;;;22.25;15.65;;;9.90;93.50;;;;;;4900244;29;20040;-78
2021/12/14 14:22:13;;;;;;;22.75;15.63;;;9.90;93.50;;;;;;4900331;29;20043;-79
2021/12/14 14:24:46;;;;;;;23.05;16.25;;;9.90;93.50;;;;;;4917260;29;20032;-78
2021/12/14 14:27:41;;;;;;;21.02;15.27;;;9.90;93.50;;;;;;4900300;29;20499;-78
2021/12/14 14:30:23;;;;;;;22.50;16.08;;;9.90;93.50;;;;;;4872815;29;20039;-78
2021/12/14 14:33:12;;;;;;;22.40;15.57;;;9.90;93.50;;;;;;4900498;29;20060;-77
2021/12/14 14:36:02;;;;;;;20.02;15.05;;;9.90;93.50;;;;;;4900299;29;20044;-76
2021/12/14 14:38:37;;;;;;;22.42;15.40;;;9.90;93.50;;;;;;4900269;29;20072;-78
2021/12/14 14:41:08;;;;;;;21.75;15.70;;;9.90;93.50;;;;;;4916521;29;20394;-74
2021/12/14 14:43:54;;;;;;;24.92;16.92;;;9.90;93.40;;;;;;4900065;29;20476;-76
2021/12/14 14:46:38;;;;;;;22.35;16.65;;;10.00;93.50;;;;;;4900145;29;20500;-75
2021/12/14 14:49:05;;;;;;;23.80;17.02;;;9.90;93.50;;;;;;4913536;29;20388;-74
2021/12/14 14:51:47;;;;;;;23.70;16.60;;;9.90;93.60;;;;;;4917458;29;20400;-74
2021/12/14 14:54:41;;;;;;;24.75;17.20;;;9.90;93.60;;;;;;4917404;29;20099;-75
2021/12/14 14:57:06;;;;;;;23.60;16.35;;;9.90;93.60;;;;;;4900646;29;20032;-73
2021/12/14 14:59:33;;;;;;;24.33;16.58;;;9.90;93.50;;;;;;4917413;29;20492;-73
2021/12/14 15:01:59;;;;;;;24.50;16.85;;;9.90;93.50;;;;;;4914067;29;20447;-75
2021/12/14 15:04:24;;;;;;;23.90;17.42;;;9.90;93.50;;;;;;4917546;29;20123;-73
2021/12/14 15:06:50;;;;;;;24.55;17.30;;;9.90;93.50;;;;;;4899765;29;20056;-76
2021/12/14 15:09:30;;;;;;;24.55;17.17;;;9.90;93.50;;;;;;4899060;29;20479;-73
2021/12/14 15:11:59;;;;;;;23.98;17.08;;;9.90;93.60;;;;;;4900636;29;20024;-75
2021/12/14 15:14:32;;;;;;;23.35;16.85;;;9.90;93.50;;;;;;4900367;29;20028;-74
2021/12/14 15:17:01;;;;;;;22.60;16.60;;;9.90;93.60;;;;;;4900148;29;20028;-72
2021/12/14 15:19:30;;;;;;;24.23;16.73;;;9.90;93.60;;;;;;4917066;29;20031;-73
2021/12/14 15:22:00;;;;;;;25.30;18.30;;;9.90;93.60;;;;;;4899791;29;20028;-72
2021/12/14 15:24:36;;;;;;;24.95;17.52;;;9.90;93.60;;;;;;4900102;29;20555;-75
2021/12/14 15:27:12;;;;;;;27.58;18.88;;;9.90;93.60;;;;;;4916780;29;20021;-76
2021/12/14 15:29:41;;;;;;;25.85;18.42;;;9.90;93.80;;;;;;4900006;29;20509;-73
2021/12/14 15:32:15;;;;;;;27.13;18.85;;;9.90;93.90;;;;;;4899727;29;20028;-74
2021/12/14 15:34:56;;;;;;;29.13;19.45;;;9.90;93.90;;;;;;4899575;29;20076;-77
2021/12/14 15:37:38;;;;;;;25.93;18.30;;;9.90;93.90;;;;;;4899808;29;20380;-74
2021/12/14 15:40:24;;;;;;;26.48;17.58;;;9.90;93.70;;;;;;4917695;29;20035;-76
2021/12/14 15:42:55;;;;;;;27.98;18.20;;;10.00;93.40;;;;;;4886737;29;20132;-76
2021/12/14 15:45:42;;;;;;;27.00;17.50;;;10.00;93.30;;;;;;4898811;29;20511;-76
2021/12/14 15:48:25;;;;;;;27.02;17.33;;;10.00;93.30;;;;;;4914672;29;20396;-76
2021/12/14 15:50:59;;;;;;;28.42;17.90;;;10.00;93.20;;;;;;4915920;29;20039;-75
2021/12/14 15:53:33;;;;;;;26.23;18.58;;;10.00;93.30;;;;;;4898997;29;20028;-75
2021/12/14 15:56:22;;;;;;;26.75;17.55;;;10.00;93.40;;;;;;4898585;29;20489;-75
2021/12/14 15:58:58;;;;;;;27.55;17.95;;;9.90;93.50;;;;;;4915218;29;20040;-74
2021/12/14 16:01:35;;;;;;;25.20;18.33;;;9.90;93.50;;;;;;4915725;29;20035;-75
2021/12/14 16:04:11;;;;;;;27.83;18.38;;;9.90;93.60;;;;;;4898322;29;20032;-77
2021/12/14 16:06:41;;;;;;;26.35;18.80;;;9.90;93.50;;;;;;4898510;29;20025;-75
2021/12/14 16:09:09;;;;;;;26.48;19.02;;;9.90;93.60;;;;;;4897973;29;20032;-75
2021/12/14 16:11:48;;;;;;;26.00;19.35;;;9.90;93.60;;;;;;4915586;29;20408;-74
2021/12/14 16:17:16;;;;;;;27.05;19.50;;;9.90;93.60;;;;;;4915395;29;20040;-75
2021/12/14 16:19:46;;;;;;;28.83;19.27;;;9.90;93.60;;;;;;4914915;29;20032;-75
2021/12/14 16:22:18;;;;;;;26.05;18.45;;;10.00;93.70;;;;;;4898480;29;20064;-77
2021/12/14 16:24:48;;;;;;;26.77;18.95;;;9.90;93.60;;;;;;4898473;29;20063;-76
2021/12/14 16:27:22;;;;;;;29.77;20.02;;;9.90;93.70;;;;;;4898065;29;20028;-75
2021/12/14 16:29:48;;;;;;;27.50;19.60;;;9.90;93.70;;;;;;4898255;29;20031;-77
2021/12/14 16:32:17;;;;;;;27.92;19.48;;;9.90;93.70;;;;;;4898200;29;20514;-75
2021/12/14 16:34:44;;;;;;;26.75;19.73;;;9.90;93.70;;;;;;4898523;29;20028;-77
2021/12/14 16:37:11;;;;;;;28.52;20.33;;;9.90;93.70;;;;;;4895432;29;20047;-74